Aérodrome :
LOGIN :

S'inscrire | Disclaimer

   EN    FR    IT 

 










Légende :    VFR   VFR Marginal   IFR   IFR Intensif   IFR Très Intensif
Visi : 
Plafond : 
>= 8 km
>= 3000ft
5 à 8 km
1000 à 3000 ft
1500m à 5 km
500 à 1000 ft
800 à 1500m
200 à 500 ft
< 800m
< 200 ft
Symboles :   Orages  Brouillard  Fortes neiges  Fortes précipitations  Vent > 20 kt
SIGMETs :   Divers  Orages  Givrage  Turbulence  Onde Orograph.  Cendres Volcan.







- Altitude de l'aérodrome : 289 ft
- Code IATA : ZAD


LDZD - Zadar

DERNIER METAR :
  • 150700Z 08003KT 040V110 CAVOK M02/M03 Q1014 NOSIG

METARs EXPIRÉS :
  • 150630Z VRB01KT CAVOK M01/M03 Q1014 NOSIG
  • 150600Z 22003KT 150V320 CAVOK M01/M03 Q1014 NOSIG
  • 150530Z VRB01KT 9999 FEW060 M00/M02 Q1014 NOSIG
  • 150500Z VRB02KT 9999 FEW033 BKN063 02/M02 Q1013 NOSIG
  • 150430Z 04006KT 350V080 9999 FEW033 BKN066 03/M02 Q1013 NOSIG

TAF TAF LDZD
Valide du 15 à 06h jusqu'au 16 à 06h UTC


150525Z 1506/1606 06008KT 9999 SCT030 TX05/1512Z TNM05/1604Z
Pas de NOTAMs connus pour ce terrain.
1 SIGMET publié pour la FIR Zagreb (LDZO) :
 
Turbulence forte
LDZO SIGMET 2 VALID 150700/151100 LDZA
LDZO ZAGREB FIR SEV TURB FCST WI N4527 E01314 - N4535 E01430 - N4412 E01551 - N4356 E01523 - N4527 E01314 SFC/FL050 STNR NC=



MET'MAP, la Météo Aéronautique d'un coup d'oeil ! - Copyright ORBIFLY Décembre 2007 - Disclaimer

ORBIFLY MET'MAP TEAM :

Programmation & Développement : Alexandra Zaïnal
Conception & Développement : Baudouin d'Aumeries
Co-Programmation & Développement : Marc-Olivier Méhu
Soutien technique & logistique : Manuel Goepfert

Contact : metmap@orbifly.com




SOURCES & CREDITS :

   NOAA